Time;durP1;ratioP1;P1;durP2;ratioP2;P2;SDS_P1;SDS_P2;PMS_P1;PMS_P2;Temp;Humidity;BMP_temperature;BMP_pressure;BME280_temperature;BME280_humidity;BME280_pressure;Samples;Min_cycle;Max_cycle;Signal;HPM_P1;HPM_P2
2023/12/31 00:01:14;;;;;;;8.90;2.67;;;;;;;6.58;97.70;100830.47;5019660;28;20159;-65
2023/12/31 00:03:40;;;;;;;7.97;2.20;;;;;;;6.63;97.80;100830.72;5012557;28;20120;-65
2023/12/31 00:06:05;;;;;;;6.45;1.75;;;;;;;6.66;97.41;100831.78;5012390;28;20081;-66
2023/12/31 00:08:31;;;;;;;14.27;2.17;;;;;;;6.69;97.55;100833.69;5012676;28;20038;-65
2023/12/31 00:10:56;;;;;;;10.70;2.33;;;;;;;6.73;97.45;100827.81;5027484;28;20080;-66
2023/12/31 00:13:21;;;;;;;8.13;2.03;;;;;;;6.75;97.39;100829.72;5012381;28;20117;-66
2023/12/31 00:15:47;;;;;;;8.80;2.17;;;;;;;6.76;97.31;100828.00;5011785;28;20121;-65
2023/12/31 00:18:12;;;;;;;6.67;1.63;;;;;;;6.78;97.30;100823.72;5012271;28;20360;-66
2023/12/31 00:20:37;;;;;;;7.73;2.20;;;;;;;6.82;97.22;100828.31;5012101;28;20129;-66
2023/12/31 00:23:03;;;;;;;10.73;1.90;;;;;;;6.83;97.53;100824.91;5012327;28;20041;-66
2023/12/31 00:25:28;;;;;;;9.90;2.40;;;;;;;6.86;97.58;100819.81;5012130;28;20117;-66
2023/12/31 00:27:53;;;;;;;9.73;2.05;;;;;;;6.86;97.43;100811.94;5012510;28;20116;-66
2023/12/31 00:30:19;;;;;;;8.40;1.80;;;;;;;6.89;97.02;100813.03;5012274;28;20141;-66
2023/12/31 00:32:44;;;;;;;5.67;1.60;;;;;;;6.88;96.94;100813.84;5012293;28;20045;-66
2023/12/31 00:35:10;;;;;;;7.70;1.60;;;;;;;6.84;97.37;100800.47;5011658;28;20129;-67
2023/12/31 00:37:35;;;;;;;8.13;2.00;;;;;;;6.82;97.38;100804.69;5009101;28;20038;-66
2023/12/31 00:40:01;;;;;;;8.00;1.63;;;;;;;6.78;97.69;100800.09;5011905;28;20046;-66
2023/12/31 00:42:26;;;;;;;9.90;1.93;;;;;;;6.78;97.67;100800.09;5012159;28;20117;-66
2023/12/31 00:44:51;;;;;;;7.77;2.13;;;;;;;6.75;97.22;100806.09;5011361;28;20121;-66
2023/12/31 00:47:17;;;;;;;12.30;2.30;;;;;;;6.71;97.12;100803.22;5011666;28;20117;-67
2023/12/31 00:49:42;;;;;;;8.85;1.63;;;;;;;6.65;97.42;100800.22;5011614;28;20041;-66
2023/12/31 00:52:07;;;;;;;9.13;2.10;;;;;;;6.60;97.42;100791.19;5027001;28;20494;-67
2023/12/31 00:54:34;;;;;;;6.43;1.83;;;;;;;6.54;97.38;100790.84;5011511;28;20046;-66
2023/12/31 00:56:59;;;;;;;8.27;1.70;;;;;;;6.47;97.78;100793.09;5011622;28;20113;-66
2023/12/31 00:59:25;;;;;;;9.80;2.00;;;;;;;6.42;97.76;100786.69;5011572;28;20037;-66
2023/12/31 01:01:51;;;;;;;8.53;2.10;;;;;;;6.38;98.07;100786.41;5034932;28;20819;-67
2023/12/31 01:04:16;;;;;;;10.57;2.10;;;;;;;6.31;98.03;100779.03;5012646;28;20048;-66
2023/12/31 01:06:42;;;;;;;5.35;1.77;;;;;;;6.25;98.15;100789.16;5027113;28;20523;-66
2023/12/31 01:09:07;;;;;;;6.33;1.93;;;;;;;6.18;98.22;100795.75;5011270;28;20479;-66
2023/12/31 01:11:34;;;;;;;6.60;1.80;;;;;;;6.10;98.55;100794.41;5026591;28;20025;-68
2023/12/31 01:14:00;;;;;;;14.52;2.25;;;;;;;6.03;98.99;100800.06;5026476;28;20038;-67
2023/12/31 01:16:25;;;;;;;6.37;1.80;;;;;;;5.96;99.06;100788.34;5009911;28;20096;-66
2023/12/31 01:18:51;;;;;;;6.13;1.75;;;;;;;5.90;99.30;100787.97;5010976;28;20045;-65
2023/12/31 01:21:17;;;;;;;13.60;2.20;;;;;;;5.84;99.52;100787.56;5011099;28;20057;-65
2023/12/31 01:23:43;;;;;;;7.82;1.70;;;;;;;5.83;99.49;100782.22;5011387;28;20060;-66
2023/12/31 01:26:08;;;;;;;10.30;2.10;;;;;;;5.79;99.83;100786.38;5025095;28;20050;-66
2023/12/31 01:28:33;;;;;;;8.37;1.80;;;;;;;5.76;100.00;100786.22;5011193;28;20505;-65
2023/12/31 01:30:59;;;;;;;11.80;2.20;;;;;;;5.72;100.00;100783.31;5010951;28;20050;-65
2023/12/31 01:33:24;;;;;;;9.90;1.87;;;;;;;5.69;100.00;100780.47;5010980;28;20030;-66
2023/12/31 01:35:49;;;;;;;8.03;2.20;;;;;;;5.64;100.00;100788.97;5010604;28;20372;-66
2023/12/31 01:38:15;;;;;;;7.53;2.03;;;;;;;5.59;100.00;100779.94;5010744;28;20034;-66
2023/12/31 01:40:40;;;;;;;6.60;1.90;;;;;;;5.56;100.00;100777.13;5026137;28;20136;-66
2023/12/31 01:43:06;;;;;;;7.07;1.90;;;;;;;5.50;100.00;100778.47;5010740;28;20094;-66
2023/12/31 01:45:31;;;;;;;6.93;1.80;;;;;;;5.48;100.00;100775.75;5010437;28;20041;-66
2023/12/31 01:47:57;;;;;;;11.97;2.30;;;;;;;5.46;100.00;100776.47;5010731;28;20313;-66
2023/12/31 01:50:24;;;;;;;8.13;3.13;;;;;;;5.42;100.00;100767.53;5010692;28;20037;-66
2023/12/31 01:52:51;;;;;;;7.35;2.20;;;;;;;5.38;100.00;100770.75;5010526;28;20434;-66
2023/12/31 01:55:16;;;;;;;8.57;2.30;;;;;;;5.34;100.00;100767.84;5025554;28;20401;-65
2023/12/31 01:57:42;;;;;;;9.67;2.50;;;;;;;5.34;100.00;100767.84;5010556;28;20042;-66
2023/12/31 02:00:09;;;;;;;9.40;2.03;;;;;;;5.30;100.00;100764.16;5026626;28;20120;-66
2023/12/31 02:02:46;;;;;;;8.32;2.60;;;;;;;5.25;100.00;100762.03;5014597;28;20042;-66
2023/12/31 02:05:12;;;;;;;9.32;2.30;;;;;;;5.24;100.00;100755.91;5025346;28;20045;-65
2023/12/31 02:07:37;;;;;;;9.10;2.33;;;;;;;5.22;100.00;100752.31;5010717;28;20092;-66
2023/12/31 02:10:03;;;;;;;9.93;2.30;;;;;;;5.20;100.00;100748.66;5010370;28;20112;-66
2023/12/31 02:12:28;;;;;;;6.97;2.15;;;;;;;5.19;100.00;100754.72;5009272;28;20099;-67
2023/12/31 02:14:54;;;;;;;5.70;1.70;;;;;;;5.15;100.00;100745.78;5009990;28;20116;-66
2023/12/31 02:17:19;;;;;;;12.27;2.33;;;;;;;5.15;100.00;100748.38;5025554;28;20038;-66
2023/12/31 02:19:45;;;;;;;5.65;2.00;;;;;;;5.14;100.00;100740.44;5025255;28;20510;-66
2023/12/31 02:22:11;;;;;;;10.67;2.43;;;;;;;5.10;100.00;100741.06;5025168;28;20044;-66
2023/12/31 02:24:44;;;;;;;11.05;2.35;;;;;;;5.08;100.00;100745.31;5008666;28;20510;-65
2023/12/31 02:27:10;;;;;;;10.80;2.00;;;;;;;5.05;100.00;100738.16;5010089;28;20410;-67
2023/12/31 02:29:35;;;;;;;13.57;2.40;;;;;;;5.04;100.00;100730.19;5010121;28;20124;-66
2023/12/31 02:32:00;;;;;;;7.63;2.40;;;;;;;5.02;100.00;100729.22;5010298;28;20118;-65
2023/12/31 02:34:26;;;;;;;10.60;2.33;;;;;;;4.98;100.00;100725.47;5025729;28;20037;-66
2023/12/31 02:36:51;;;;;;;7.53;2.17;;;;;;;4.94;100.00;100733.94;5010356;28;20117;-65
2023/12/31 02:39:17;;;;;;;10.00;2.63;;;;;;;4.95;100.00;100729.63;5006028;28;20041;-66
2023/12/31 02:41:42;;;;;;;8.37;2.40;;;;;;;4.93;100.00;100723.41;5014715;28;20125;-66
2023/12/31 02:44:08;;;;;;;9.27;2.33;;;;;;;4.91;100.00;100736.38;5014496;28;20042;-65
2023/12/31 02:46:33;;;;;;;11.38;2.40;;;;;;;4.89;100.00;100730.13;5029331;28;20065;-65
2023/12/31 02:48:58;;;;;;;19.57;2.93;;;;;;;4.86;100.00;100729.97;5028906;28;20050;-66
2023/12/31 02:51:24;;;;;;;6.03;1.90;;;;;;;4.85;100.00;100722.00;5014022;28;20402;-66
2023/12/31 02:53:49;;;;;;;7.30;1.83;;;;;;;4.84;100.00;100714.97;5013669;28;20128;-66
2023/12/31 02:56:14;;;;;;;15.03;2.40;;;;;;;4.81;100.00;100710.44;5014318;28;20558;-65
2023/12/31 02:58:40;;;;;;;7.68;2.40;;;;;;;4.78;100.00;100713.75;5014181;28;20045;-66
2023/12/31 03:01:05;;;;;;;7.13;2.40;;;;;;;4.77;100.00;100703.22;5036154;28;20112;-66
2023/12/31 03:06:04;;;;;;;12.10;2.70;;;;;;;4.73;100.00;100699.53;5003947;28;20392;-64
2023/12/31 03:08:29;;;;;;;13.37;3.03;;;;;;;4.73;100.00;100693.38;5002983;28;20384;-65
2023/12/31 03:10:54;;;;;;;8.60;2.57;;;;;;;4.71;100.00;100693.28;4986949;28;20381;-64
2023/12/31 03:13:20;;;;;;;11.23;2.60;;;;;;;4.70;100.00;100695.78;4984677;28;20027;-64
2023/12/31 03:15:46;;;;;;;9.95;2.60;;;;;;;4.66;100.00;100686.84;4984554;28;20037;-64
2023/12/31 03:18:11;;;;;;;10.67;2.27;;;;;;;4.65;100.00;100686.75;4984484;28;20201;-64
2023/12/31 03:20:36;;;;;;;8.63;2.57;;;;;;;4.59;100.00;100687.25;4983262;28;20506;-64
2023/12/31 03:23:02;;;;;;;7.23;2.20;;;;;;;4.59;100.00;100682.03;4983361;28;20034;-66
2023/12/31 03:25:27;;;;;;;7.87;2.50;;;;;;;4.57;100.00;100681.03;4984787;28;21011;-66
2023/12/31 03:27:53;;;;;;;7.22;2.25;;;;;;;4.59;100.00;100671.56;4983884;28;20060;-64
2023/12/31 03:30:19;;;;;;;12.43;2.90;;;;;;;4.63;100.00;100670.97;4983291;28;20038;-66
2023/12/31 03:32:44;;;;;;;10.67;2.83;;;;;;;4.63;100.00;100668.34;4984769;28;20477;-67
2023/12/31 03:35:09;;;;;;;10.93;2.63;;;;;;;4.62;100.00;100663.91;4983730;28;20365;-67
2023/12/31 03:37:35;;;;;;;8.33;2.37;;;;;;;4.67;100.00;100654.66;4976677;28;20453;-64
2023/12/31 03:40:00;;;;;;;9.27;2.30;;;;;;;4.67;100.00;100658.97;5005085;28;20027;-66
2023/12/31 03:42:25;;;;;;;9.30;2.60;;;;;;;4.66;100.00;100658.06;4978508;28;20043;-67
2023/12/31 03:44:51;;;;;;;8.50;2.60;;;;;;;4.66;100.00;100658.06;4979983;28;20060;-67
2023/12/31 03:47:16;;;;;;;8.10;2.37;;;;;;;4.64;100.00;100664.00;4976301;28;20365;-66
2023/12/31 03:49:42;;;;;;;8.17;2.40;;;;;;;4.62;100.00;100663.91;4982947;28;20057;-66
2023/12/31 03:52:07;;;;;;;6.77;2.50;;;;;;;4.64;100.00;100656.16;4975951;28;20130;-67
2023/12/31 03:54:33;;;;;;;6.57;2.05;;;;;;;4.65;100.00;100661.50;4983874;28;20050;-66
2023/12/31 03:56:58;;;;;;;7.90;2.40;;;;;;;4.64;100.00;100661.38;4982725;28;20043;-64
2023/12/31 03:59:24;;;;;;;6.00;1.87;;;;;;;4.64;100.00;100653.53;4982737;28;20042;-64
2023/12/31 04:01:55;;;;;;;9.70;2.00;;;;;;;4.63;100.00;100652.66;4989878;28;20027;-64
2023/12/31 04:04:21;;;;;;;7.07;2.20;;;;;;;4.59;100.00;100653.25;4983578;28;20502;-63
2023/12/31 04:06:46;;;;;;;7.93;2.20;;;;;;;4.58;100.00;100642.72;4983794;28;20035;-64
2023/12/31 04:09:12;;;;;;;10.32;2.28;;;;;;;4.56;100.00;100639.09;4984080;28;20114;-64
2023/12/31 04:11:37;;;;;;;11.63;2.70;;;;;;;4.55;100.00;100643.41;4984794;28;20034;-64
2023/12/31 04:14:03;;;;;;;10.17;2.53;;;;;;;4.54;100.00;100635.50;4983716;28;20050;-64
2023/12/31 04:16:28;;;;;;;7.88;2.25;;;;;;;4.52;100.00;100635.38;4975563;28;20045;-65
2023/12/31 04:18:54;;;;;;;7.27;1.77;;;;;;;4.52;100.00;100626.63;4970534;28;20043;-64
2023/12/31 04:21:19;;;;;;;8.23;2.10;;;;;;;4.50;100.00;100623.91;4969522;28;20138;-64
2023/12/31 04:23:44;;;;;;;8.33;2.27;;;;;;;4.50;100.00;100623.00;4970818;28;20160;-64
2023/12/31 04:26:10;;;;;;;8.07;1.83;;;;;;;4.52;100.00;100627.53;4970128;28;20082;-64
2023/12/31 04:28:35;;;;;;;6.40;2.10;;;;;;;4.56;100.00;100628.63;4970571;28;20118;-64
2023/12/31 04:31:04;;;;;;;7.53;2.10;;;;;;;4.59;100.00;100613.09;4970483;28;20088;-64
2023/12/31 04:33:29;;;;;;;6.28;1.98;;;;;;;4.59;100.00;100614.00;4970622;28;20395;-64
2023/12/31 04:35:54;;;;;;;6.83;2.17;;;;;;;4.61;100.00;100612.41;4970106;28;20102;-64
2023/12/31 04:38:20;;;;;;;12.50;2.80;;;;;;;4.62;100.00;100608.09;4970416;28;20042;-64
2023/12/31 04:40:47;;;;;;;7.05;2.70;;;;;;;4.66;100.00;100604.84;4970324;28;20067;-65
2023/12/31 04:43:12;;;;;;;7.50;2.33;;;;;;;4.68;100.00;100596.31;4970157;28;20130;-65
2023/12/31 04:45:37;;;;;;;6.63;1.90;;;;;;;4.73;100.00;100592.25;4969997;28;20121;-66
2023/12/31 04:48:03;;;;;;;7.20;2.17;;;;;;;4.75;100.00;100588.00;4970236;28;20165;-65
2023/12/31 04:50:28;;;;;;;7.72;2.03;;;;;;;4.78;100.00;100588.16;4970038;28;20042;-66
2023/12/31 04:52:55;;;;;;;9.67;2.20;;;;;;;4.83;100.00;100592.81;4970223;28;20502;-65
2023/12/31 04:55:20;;;;;;;7.07;1.67;;;;;;;4.88;100.00;100587.06;4969896;28;20450;-65
2023/12/31 04:57:46;;;;;;;10.60;1.87;;;;;;;4.91;100.00;100581.09;4970536;28;20113;-65
2023/12/31 05:00:12;;;;;;;9.90;2.23;;;;;;;4.92;100.00;100572.44;4971284;28;20122;-65
2023/12/31 05:02:38;;;;;;;7.35;1.88;;;;;;;4.96;100.00;100572.69;4975384;28;20113;-65
2023/12/31 05:05:04;;;;;;;7.60;1.85;;;;;;;4.99;100.00;100575.50;4968685;28;20479;-66
2023/12/31 05:07:30;;;;;;;8.02;2.10;;;;;;;5.04;100.00;100567.91;4970012;28;20035;-66
2023/12/31 05:09:55;;;;;;;9.93;2.23;;;;;;;5.07;100.00;100565.50;4969625;28;20053;-65
2023/12/31 05:12:21;;;;;;;6.73;2.17;;;;;;;5.10;100.00;100565.66;4969882;28;20038;-66
2023/12/31 05:14:46;;;;;;;6.72;2.28;;;;;;;5.09;100.00;100567.38;4968482;28;20031;-65
2023/12/31 05:17:12;;;;;;;6.43;2.43;;;;;;;5.11;100.00;100573.63;4969879;28;20471;-65
2023/12/31 05:19:37;;;;;;;9.53;2.00;;;;;;;5.16;100.00;100558.19;4969642;28;20031;-66
2023/12/31 05:22:03;;;;;;;8.30;1.80;;;;;;;5.19;100.00;100555.72;4969335;28;20104;-65
2023/12/31 05:24:29;;;;;;;5.07;1.60;;;;;;;5.23;100.00;100557.72;4969415;28;20045;-66
2023/12/31 05:26:54;;;;;;;5.73;2.20;;;;;;;5.23;100.00;100553.38;4969298;28;20050;-65
2023/12/31 05:29:19;;;;;;;8.57;1.95;;;;;;;5.25;100.00;100548.25;4968679;28;20106;-65
2023/12/31 05:31:45;;;;;;;8.50;2.20;;;;;;;5.29;100.00;100549.31;4969700;28;20023;-65
2023/12/31 05:34:10;;;;;;;6.40;1.97;;;;;;;5.32;100.00;100553.03;4971540;28;20485;-66
2023/12/31 05:36:36;;;;;;;8.50;1.70;;;;;;;5.34;100.00;100555.72;4975062;28;20106;-65
2023/12/31 05:39:01;;;;;;;7.03;1.60;;;;;;;5.37;100.00;100548.97;4969061;28;20449;-65
2023/12/31 05:41:26;;;;;;;8.90;2.13;;;;;;;5.37;100.00;100541.13;4969478;28;20556;-65
2023/12/31 05:43:52;;;;;;;6.33;2.00;;;;;;;5.41;100.00;100531.72;4968798;28;20035;-65
2023/12/31 05:46:17;;;;;;;12.10;1.90;;;;;;;5.41;100.00;100524.75;4968795;28;20034;-65
2023/12/31 05:48:43;;;;;;;6.47;2.00;;;;;;;5.44;100.00;100526.66;4969095;28;20031;-65
2023/12/31 05:51:09;;;;;;;10.40;2.83;;;;;;;5.43;100.00;100528.34;4969003;28;20290;-66
2023/12/31 05:53:34;;;;;;;10.82;1.92;;;;;;;5.46;100.00;100530.25;4968958;28;20410;-65
2023/12/31 05:56:00;;;;;;;7.27;2.17;;;;;;;5.48;100.00;100518.16;4968668;28;20087;-65
2023/12/31 05:58:25;;;;;;;10.07;1.83;;;;;;;5.51;100.00;100518.34;4969097;28;20045;-67
2023/12/31 06:00:51;;;;;;;8.27;2.17;;;;;;;5.48;100.00;100505.03;4975688;28;20046;-65
2023/12/31 06:03:16;;;;;;;6.07;1.73;;;;;;;5.49;100.00;100513.00;4969265;28;20034;-65
2023/12/31 06:05:42;;;;;;;10.47;1.93;;;;;;;5.52;100.00;100510.56;4968464;28;20114;-65
2023/12/31 06:08:07;;;;;;;6.40;2.10;;;;;;;5.56;100.00;100528.25;4968314;28;20152;-65
2023/12/31 06:10:33;;;;;;;6.70;2.30;;;;;;;5.55;100.00;100518.59;4966822;28;20035;-65
2023/12/31 06:12:58;;;;;;;9.35;2.53;;;;;;;5.57;100.00;100516.06;4969166;28;20067;-65
2023/12/31 06:15:23;;;;;;;12.73;2.20;;;;;;;5.60;100.00;100511.91;4968680;28;20031;-66
2023/12/31 06:17:49;;;;;;;9.10;2.20;;;;;;;5.64;100.00;100518.22;4968555;28;20121;-66
2023/12/31 06:20:14;;;;;;;7.40;2.40;;;;;;;5.69;100.00;100521.09;4968448;28;20061;-66
2023/12/31 06:22:40;;;;;;;8.70;2.40;;;;;;;5.67;100.00;100520.13;4968708;28;20550;-65
2023/12/31 06:25:05;;;;;;;6.07;2.13;;;;;;;5.67;100.00;100530.59;4968342;28;20302;-65
2023/12/31 06:27:31;;;;;;;8.98;2.05;;;;;;;5.67;100.00;100517.50;4969065;28;20479;-65
2023/12/31 06:29:56;;;;;;;7.70;2.20;;;;;;;5.68;100.00;100516.66;4968906;28;20066;-65
2023/12/31 06:32:22;;;;;;;6.67;2.30;;;;;;;5.71;100.00;100519.47;4968543;28;20034;-66
2023/12/31 06:34:47;;;;;;;8.53;1.87;;;;;;;5.71;100.00;100514.22;4968398;28;20368;-65
2023/12/31 06:37:12;;;;;;;8.80;2.13;;;;;;;5.71;100.00;100515.13;4968377;28;20138;-67
2023/12/31 06:39:41;;;;;;;6.95;2.60;;;;;;;5.74;100.00;100510.06;4966639;28;20431;-67
2023/12/31 06:42:06;;;;;;;7.07;2.03;;;;;;;5.75;100.00;100506.63;4968377;28;20118;-66
2023/12/31 06:44:31;;;;;;;10.43;2.33;;;;;;;5.76;100.00;100508.44;4968532;28;20035;-66
2023/12/31 06:46:57;;;;;;;7.73;2.10;;;;;;;5.73;100.00;100512.56;4968234;28;20046;-65
2023/12/31 06:49:22;;;;;;;6.60;2.00;;;;;;;5.73;100.00;100509.94;4968404;28;20538;-65
2023/12/31 06:51:47;;;;;;;7.90;1.90;;;;;;;5.71;100.00;100506.38;4968488;28;20047;-65
2023/12/31 06:54:13;;;;;;;5.87;2.23;;;;;;;5.71;100.00;100509.88;4967971;28;20547;-65
2023/12/31 06:56:39;;;;;;;12.93;2.25;;;;;;;5.72;100.00;100505.56;4968658;28;20034;-65
2023/12/31 06:59:04;;;;;;;12.13;2.80;;;;;;;5.69;100.00;100505.38;4968210;28;20043;-65
2023/12/31 07:01:29;;;;;;;8.47;2.67;;;;;;;5.70;100.00;100504.56;4975565;28;20114;-65
2023/12/31 07:03:55;;;;;;;9.43;2.87;;;;;;;5.68;100.00;100499.22;4968177;28;20161;-65
2023/12/31 07:06:21;;;;;;;8.03;2.50;;;;;;;5.70;100.00;100494.06;4966782;28;20283;-65
2023/12/31 07:08:46;;;;;;;6.50;2.28;;;;;;;5.71;100.00;100488.03;4968234;28;20473;-65
2023/12/31 07:11:14;;;;;;;9.13;2.57;;;;;;;5.70;100.00;100486.22;4960439;28;20117;-65
2023/12/31 07:13:40;;;;;;;7.15;2.33;;;;;;;5.68;100.00;100482.59;4968463;28;20491;-65
2023/12/31 07:16:05;;;;;;;9.97;2.37;;;;;;;5.67;100.00;100480.81;4969624;28;20045;-65
2023/12/31 07:18:32;;;;;;;6.60;2.30;;;;;;;5.67;100.00;100479.09;4969713;28;20085;-65
2023/12/31 07:20:57;;;;;;;6.38;2.17;;;;;;;5.68;100.00;100472.13;4968043;28;20030;-65
2023/12/31 07:23:23;;;;;;;6.13;2.40;;;;;;;5.67;100.00;100475.56;4968284;28;20114;-65
2023/12/31 07:25:48;;;;;;;5.77;2.03;;;;;;;5.64;100.00;100474.56;4967964;28;20060;-67
2023/12/31 07:28:13;;;;;;;6.65;2.42;;;;;;;5.65;100.00;100467.63;4968340;28;20042;-65
2023/12/31 07:30:44;;;;;;;8.97;2.60;;;;;;;5.62;100.00;100460.47;4968143;28;20027;-67
2023/12/31 07:33:09;;;;;;;6.53;2.15;;;;;;;5.68;100.00;100459.00;4968053;28;20584;-66
2023/12/31 07:35:36;;;;;;;9.17;1.90;;;;;;;5.68;100.00;100454.69;4967746;28;20176;-65
2023/12/31 07:38:03;;;;;;;7.93;2.17;;;;;;;5.67;100.00;100462.47;4967900;28;20078;-64
2023/12/31 07:40:28;;;;;;;9.90;2.10;;;;;;;5.67;100.00;100454.63;4968095;28;20404;-64
2023/12/31 07:42:53;;;;;;;7.57;2.17;;;;;;;5.69;100.00;100463.44;4968014;28;20511;-66
2023/12/31 07:45:19;;;;;;;7.27;1.90;;;;;;;5.69;100.00;100461.72;4967595;28;20122;-67
2023/12/31 07:47:46;;;;;;;8.10;2.43;;;;;;;5.68;100.00;100464.25;4968061;28;20602;-67
2023/12/31 07:50:11;;;;;;;8.85;2.25;;;;;;;5.70;100.00;100463.53;4967560;28;20035;-67
2023/12/31 07:52:36;;;;;;;7.40;2.27;;;;;;;5.72;100.00;100461.91;4970782;28;20049;-66
2023/12/31 07:55:03;;;;;;;9.38;2.50;;;;;;;5.73;100.00;100463.69;4970819;28;20434;-67
2023/12/31 07:57:28;;;;;;;5.53;2.07;;;;;;;5.78;100.00;100451.75;4971151;28;20035;-67
2023/12/31 07:59:54;;;;;;;9.05;1.90;;;;;;;5.79;100.00;100456.19;4970716;28;20096;-66
2023/12/31 08:02:19;;;;;;;6.17;2.37;;;;;;;5.81;100.00;100453.66;4978436;28;20494;-66
2023/12/31 08:04:45;;;;;;;7.87;2.23;;;;;;;5.85;100.00;100445.13;4970856;28;20085;-66
2023/12/31 08:07:10;;;;;;;8.40;2.40;;;;;;;5.87;100.00;100447.03;4970779;28;20495;-66
2023/12/31 08:09:36;;;;;;;7.03;2.00;;;;;;;5.93;100.00;100446.47;4970975;28;20479;-66
2023/12/31 08:12:01;;;;;;;5.67;1.70;;;;;;;5.96;100.00;100441.41;4970924;28;20074;-66
2023/12/31 08:14:27;;;;;;;8.53;2.23;;;;;;;6.00;100.00;100431.19;4970681;28;20031;-65
2023/12/31 08:16:52;;;;;;;10.18;2.28;;;;;;;6.01;100.00;100433.00;4970862;28;20529;-65
2023/12/31 08:19:17;;;;;;;8.73;2.20;;;;;;;6.06;100.00;100431.53;4970009;28;20035;-65
2023/12/31 08:21:43;;;;;;;7.57;1.80;;;;;;;6.13;100.00;100427.47;4970864;28;20080;-65
2023/12/31 08:24:08;;;;;;;5.97;1.80;;;;;;;6.15;100.00;100431.09;4970483;28;20114;-66
2023/12/31 08:26:35;;;;;;;9.60;2.47;;;;;;;6.21;100.00;100439.31;4970528;28;20133;-65
2023/12/31 08:29:02;;;;;;;7.22;1.65;;;;;;;6.24;100.00;100431.56;4970272;28;20115;-66
2023/12/31 08:31:27;;;;;;;5.57;1.80;;;;;;;6.26;100.00;100426.44;4970838;28;20042;-65
2023/12/31 08:33:53;;;;;;;6.17;2.13;;;;;;;6.35;100.00;100429.53;4970565;28;20475;-65
2023/12/31 08:36:18;;;;;;;8.43;1.97;;;;;;;6.39;99.86;100432.38;4970131;28;20460;-66
2023/12/31 08:38:43;;;;;;;5.28;1.70;;;;;;;6.44;99.96;100425.66;4970425;28;20049;-66
2023/12/31 08:41:09;;;;;;;5.03;1.77;;;;;;;6.49;99.61;100421.56;4970436;28;20554;-66
2023/12/31 08:43:35;;;;;;;7.03;2.40;;;;;;;6.53;99.39;100419.06;4970467;28;20049;-65
2023/12/31 08:46:00;;;;;;;7.60;2.20;;;;;;;6.54;99.13;100426.13;4968703;28;20119;-64
2023/12/31 08:48:25;;;;;;;6.38;1.58;;;;;;;6.59;98.88;100424.66;4970503;28;20544;-65
2023/12/31 08:50:51;;;;;;;6.57;1.80;;;;;;;6.62;98.59;100428.31;4970040;28;20058;-66
2023/12/31 08:53:16;;;;;;;5.00;1.53;;;;;;;6.69;98.34;100427.81;4970294;28;20038;-64
2023/12/31 08:55:41;;;;;;;4.90;1.50;;;;;;;6.74;97.88;100431.59;4970122;28;20113;-65
2023/12/31 08:58:07;;;;;;;4.53;1.47;;;;;;;6.79;97.23;100431.81;4970434;28;20092;-65
2023/12/31 09:00:32;;;;;;;4.72;1.33;;;;;;;6.89;96.73;100427.13;4974344;28;20051;-66
2023/12/31 09:02:58;;;;;;;5.93;1.70;;;;;;;6.93;95.79;100421.19;4972920;28;20053;-66
2023/12/31 09:05:24;;;;;;;6.90;1.75;;;;;;;7.05;95.35;100418.28;4969754;28;20059;-66
2023/12/31 09:07:49;;;;;;;6.00;1.83;;;;;;;7.10;94.88;100422.03;4969943;28;20058;-66
2023/12/31 09:10:15;;;;;;;6.03;1.90;;;;;;;7.17;94.46;100418.88;4969954;28;20037;-65
2023/12/31 09:12:41;;;;;;;5.55;1.92;;;;;;;7.25;94.01;100422.75;4970107;28;20050;-65
2023/12/31 09:15:07;;;;;;;5.57;1.60;;;;;;;7.32;93.13;100416.97;4969707;28;20042;-65
2023/12/31 09:17:32;;;;;;;9.00;1.95;;;;;;;7.37;93.11;100417.22;4969893;28;20122;-65
2023/12/31 09:19:58;;;;;;;5.73;1.83;;;;;;;7.39;92.42;100410.31;4969729;28;20473;-66
2023/12/31 09:22:23;;;;;;;6.90;2.30;;;;;;;7.43;91.40;100409.63;4969952;28;20052;-65
2023/12/31 09:24:50;;;;;;;4.90;1.57;;;;;;;7.50;90.94;100416.09;4969523;28;20483;-71
2023/12/31 09:27:19;;;;;;;5.72;1.73;;;;;;;7.53;90.19;100416.22;4969954;28;20624;-66
2023/12/31 09:29:45;;;;;;;7.13;2.00;;;;;;;7.55;90.27;100412.81;4969855;28;20143;-66
2023/12/31 09:32:10;;;;;;;6.00;1.83;;;;;;;7.62;89.97;100422.81;4969945;28;20035;-66
2023/12/31 09:34:36;;;;;;;6.43;1.65;;;;;;;7.61;89.64;100409.59;4969697;28;20066;-66
2023/12/31 09:37:02;;;;;;;7.87;2.40;;;;;;;7.64;89.11;100401.88;4969556;28;20043;-67
2023/12/31 09:39:27;;;;;;;8.37;2.43;;;;;;;7.69;89.04;100402.97;4969496;28;20073;-66
2023/12/31 09:41:54;;;;;;;6.80;2.00;;;;;;;7.72;88.67;100398.75;4960373;28;20120;-66
2023/12/31 09:44:20;;;;;;;8.27;1.87;;;;;;;7.77;88.49;100389.34;4961389;28;20306;-66
2023/12/31 09:47:04;;;;;;;5.25;1.73;;;;;;;7.82;88.49;100381.69;4969517;28;20043;-66
2023/12/31 09:49:31;;;;;;;6.15;1.45;;;;;;;7.82;88.13;100379.94;4969231;28;20035;-66
2023/12/31 09:51:59;;;;;;;6.50;1.73;;;;;;;7.86;88.02;100378.34;4969560;28;20067;-67
2023/12/31 09:54:24;;;;;;;5.53;1.88;;;;;;;7.83;87.61;100370.34;4969336;28;20034;-66
2023/12/31 09:56:51;;;;;;;5.47;1.63;;;;;;;7.87;87.92;100356.50;4969189;28;20100;-67
2023/12/31 09:59:17;;;;;;;6.47;1.75;;;;;;;7.88;87.62;100350.41;4969051;28;20038;-66
2023/12/31 10:01:43;;;;;;;7.07;1.90;;;;;;;7.89;87.08;100348.69;4976760;28;20030;-67
2023/12/31 10:04:09;;;;;;;5.93;1.95;;;;;;;7.89;86.80;100341.69;4969205;28;20078;-67
2023/12/31 10:06:34;;;;;;;5.80;1.67;;;;;;;7.91;86.85;100334.75;4969059;28;20066;-66
2023/12/31 10:09:04;;;;;;;6.90;1.77;;;;;;;7.92;86.79;100333.94;4969264;28;20100;-66
2023/12/31 10:11:30;;;;;;;5.60;1.55;;;;;;;7.93;86.42;100325.22;4968188;28;20053;-66
2023/12/31 10:13:55;;;;;;;6.07;1.60;;;;;;;7.93;85.76;100316.44;4968763;28;20707;-67
2023/12/31 10:16:21;;;;;;;7.93;2.10;;;;;;;7.95;86.05;100320.00;4968989;28;20117;-67
2023/12/31 10:18:46;;;;;;;6.73;1.70;;;;;;;7.91;85.70;100304.94;4969174;28;20538;-67
2023/12/31 10:21:12;;;;;;;7.73;1.77;;;;;;;7.93;85.77;100298.94;4969484;28;20125;-67
2023/12/31 10:23:37;;;;;;;8.23;2.10;;;;;;;7.96;85.95;100288.53;4970660;28;20802;-67
2023/12/31 10:26:03;;;;;;;4.57;1.53;;;;;;;7.97;85.94;100281.56;4969526;28;20143;-64
2023/12/31 10:28:29;;;;;;;7.30;1.75;;;;;;;7.98;86.18;100279.00;4969619;28;20042;-66
2023/12/31 10:30:54;;;;;;;6.50;1.77;;;;;;;8.02;86.02;100274.75;4969070;28;20468;-66
2023/12/31 10:33:27;;;;;;;7.10;1.60;;;;;;;8.05;85.80;100275.78;4969942;28;20114;-66
2023/12/31 10:36:05;;;;;;;7.70;1.83;;;;;;;8.06;85.68;100264.44;4968861;28;20033;-66
2023/12/31 10:38:47;;;;;;;5.37;1.57;;;;;;;8.10;85.28;100249.69;4969786;28;20061;-66
2023/12/31 10:41:17;;;;;;;5.82;1.65;;;;;;;8.15;85.30;100243.78;4969709;28;20041;-67
2023/12/31 10:43:45;;;;;;;8.80;1.75;;;;;;;8.24;84.93;100238.00;4969263;28;20080;-66
2023/12/31 10:46:13;;;;;;;6.22;1.40;;;;;;;8.32;84.96;100226.13;4968620;28;20081;-65
2023/12/31 10:48:45;;;;;;;6.88;2.35;;;;;;;8.41;84.66;100228.22;4969338;28;20035;-65
2023/12/31 10:51:12;;;;;;;6.87;1.57;;;;;;;8.41;83.79;100222.97;4961170;28;20038;-66
2023/12/31 10:53:39;;;;;;;7.93;1.55;;;;;;;8.50;83.63;100218.97;4969686;28;20058;-65
2023/12/31 10:56:08;;;;;;;7.70;1.63;;;;;;;8.56;83.20;100210.44;4970514;28;20034;-66
2023/12/31 10:58:33;;;;;;;6.43;1.52;;;;;;;8.68;82.92;100213.56;4969826;28;20050;-65
2023/12/31 11:01:01;;;;;;;6.53;1.83;;;;;;;8.76;82.78;100212.13;4975861;28;20047;-65
2023/12/31 11:03:27;;;;;;;4.03;1.33;;;;;;;8.77;82.75;100216.56;4968855;28;20035;-65
2023/12/31 11:05:54;;;;;;;5.22;1.35;;;;;;;8.81;82.67;100209.66;4968254;28;20051;-65
2023/12/31 11:08:21;;;;;;;5.93;1.63;;;;;;;8.85;82.11;100209.84;4968905;28;20117;-66
2023/12/31 11:10:46;;;;;;;7.27;1.70;;;;;;;8.96;82.18;100202.38;4968586;28;20380;-65
2023/12/31 11:13:15;;;;;;;6.53;1.70;;;;;;;8.98;82.19;100188.41;4968519;28;20038;-66
2023/12/31 11:15:41;;;;;;;7.07;1.80;;;;;;;8.97;82.28;100188.38;4968330;28;20064;-65
2023/12/31 11:18:39;;;;;;;7.00;1.57;;;;;;;8.88;81.64;100182.75;4968455;28;20070;-66
2023/12/31 11:21:09;;;;;;;5.38;1.90;;;;;;;8.90;81.93;100187.22;4968259;28;20062;-66
2023/12/31 11:24:03;;;;;;;7.70;1.55;;;;;;;8.91;81.93;100190.75;4968849;28;20046;-66